sensor_id;sensor_type;location;lat;lon;timestamp;pressure;altitude;pressure_sealevel;temperature;humidity
36748;BME280;22716;51.556;5.080;2023-02-10T00:00:06;102823.31;;;3.68;100.00
36748;BME280;22716;51.556;5.080;2023-02-10T00:02:34;102824.09;;;3.67;100.00
36748;BME280;22716;51.556;5.080;2023-02-10T00:05:06;102830.13;;;3.66;100.00
36748;BME280;22716;51.556;5.080;2023-02-10T00:07:35;102838.34;;;3.58;100.00
36748;BME280;22716;51.556;5.080;2023-02-10T00:10:05;102839.88;;;3.54;100.00
36748;BME280;22716;51.556;5.080;2023-02-10T00:12:35;102832.75;;;3.50;100.00
36748;BME280;22716;51.556;5.080;2023-02-10T00:15:06;102834.31;;;3.47;100.00
36748;BME280;22716;51.556;5.080;2023-02-10T00:17:34;102842.16;;;3.48;100.00
36748;BME280;22716;51.556;5.080;2023-02-10T00:20:09;102842.31;;;3.51;100.00
36748;BME280;22716;51.556;5.080;2023-02-10T00:22:38;102838.94;;;3.52;100.00
36748;BME280;22716;51.556;5.080;2023-02-10T00:25:07;102829.97;;;3.46;100.00
36748;BME280;22716;51.556;5.080;2023-02-10T00:27:36;102837.03;;;3.50;100.00
36748;BME280;22716;51.556;5.080;2023-02-10T00:30:06;102823.41;;;3.36;100.00
36748;BME280;22716;51.556;5.080;2023-02-10T00:32:35;102840.81;;;3.38;100.00
36748;BME280;22716;51.556;5.080;2023-02-10T00:35:08;102830.81;;;3.28;100.00
36748;BME280;22716;51.556;5.080;2023-02-10T00:37:37;102845.63;;;3.31;100.00
36748;BME280;22716;51.556;5.080;2023-02-10T00:40:07;102841.34;;;3.31;100.00
36748;BME280;22716;51.556;5.080;2023-02-10T00:42:37;102835.91;;;3.27;100.00
36748;BME280;22716;51.556;5.080;2023-02-10T00:45:07;102836.72;;;3.26;100.00
36748;BME280;22716;51.556;5.080;2023-02-10T00:47:36;102830.56;;;3.24;100.00
36748;BME280;22716;51.556;5.080;2023-02-10T00:50:08;102839.41;;;3.27;100.00
36748;BME280;22716;51.556;5.080;2023-02-10T00:52:37;102835.09;;;3.28;100.00
36748;BME280;22716;51.556;5.080;2023-02-10T00:55:06;102834.44;;;3.32;100.00
36748;BME280;22716;51.556;5.080;2023-02-10T00:57:35;102848.28;;;3.32;100.00
36748;BME280;22716;51.556;5.080;2023-02-10T01:00:05;102844.72;;;3.30;100.00
36748;BME280;22716;51.556;5.080;2023-02-10T01:02:34;102840.28;;;3.28;100.00
36748;BME280;22716;51.556;5.080;2023-02-10T01:05:04;102854.19;;;3.30;100.00
36748;BME280;22716;51.556;5.080;2023-02-10T01:07:36;102856.88;;;3.31;100.00
36748;BME280;22716;51.556;5.080;2023-02-10T01:10:05;102845.81;;;3.18;100.00
36748;BME280;22716;51.556;5.080;2023-02-10T01:12:34;102858.84;;;3.19;100.00
36748;BME280;22716;51.556;5.080;2023-02-10T01:15:03;102853.81;;;3.22;100.00
36748;BME280;22716;51.556;5.080;2023-02-10T01:17:32;102839.56;;;3.14;100.00
36748;BME280;22716;51.556;5.080;2023-02-10T01:20:01;102851.97;;;3.20;100.00
36748;BME280;22716;51.556;5.080;2023-02-10T01:22:35;102853.34;;;3.13;100.00
36748;BME280;22716;51.556;5.080;2023-02-10T01:25:05;102860.97;;;3.10;100.00
36748;BME280;22716;51.556;5.080;2023-02-10T01:27:34;102878.50;;;3.16;100.00
36748;BME280;22716;51.556;5.080;2023-02-10T01:30:04;102884.81;;;3.21;100.00
36748;BME280;22716;51.556;5.080;2023-02-10T01:32:33;102856.59;;;3.09;100.00
36748;BME280;22716;51.556;5.080;2023-02-10T01:35:02;102879.78;;;3.24;100.00
36748;BME280;22716;51.556;5.080;2023-02-10T01:37:31;102864.75;;;3.17;100.00
36748;BME280;22716;51.556;5.080;2023-02-10T01:40:03;102860.38;;;3.16;100.00
36748;BME280;22716;51.556;5.080;2023-02-10T01:42:32;102870.59;;;3.13;100.00
36748;BME280;22716;51.556;5.080;2023-02-10T01:45:20;102857.38;;;3.08;100.00
36748;BME280;22716;51.556;5.080;2023-02-10T01:47:51;102858.22;;;3.07;100.00
36748;BME280;22716;51.556;5.080;2023-02-10T01:50:25;102858.06;;;3.04;100.00
36748;BME280;22716;51.556;5.080;2023-02-10T01:52:55;102857.09;;;3.02;100.00
36748;BME280;22716;51.556;5.080;2023-02-10T01:55:31;102844.63;;;2.95;100.00
36748;BME280;22716;51.556;5.080;2023-02-10T01:58:03;102854.41;;;3.01;100.00
36748;BME280;22716;51.556;5.080;2023-02-10T02:00:33;102848.91;;;2.95;100.00
36748;BME280;22716;51.556;5.080;2023-02-10T02:03:03;102854.25;;;2.98;100.00
36748;BME280;22716;51.556;5.080;2023-02-10T02:05:34;102847.13;;;2.94;100.00
36748;BME280;22716;51.556;5.080;2023-02-10T02:08:06;102854.88;;;2.94;100.00
36748;BME280;22716;51.556;5.080;2023-02-10T02:10:45;102861.06;;;2.96;100.00
36748;BME280;22716;51.556;5.080;2023-02-10T02:13:27;102858.31;;;2.93;100.00
36748;BME280;22716;51.556;5.080;2023-02-10T02:16:04;102855.63;;;2.91;100.00
36748;BME280;22716;51.556;5.080;2023-02-10T02:18:38;102852.00;;;2.88;100.00
36748;BME280;22716;51.556;5.080;2023-02-10T02:24:32;102861.31;;;2.84;100.00
36748;BME280;22716;51.556;5.080;2023-02-10T02:27:20;102854.91;;;2.77;100.00
36748;BME280;22716;51.556;5.080;2023-02-10T02:30:24;102867.22;;;2.81;100.00
36748;BME280;22716;51.556;5.080;2023-02-10T02:33:04;102866.16;;;2.78;100.00
36748;BME280;22716;51.556;5.080;2023-02-10T02:35:40;102872.94;;;2.76;100.00
36748;BME280;22716;51.556;5.080;2023-02-10T02:38:11;102875.44;;;2.74;100.00
36748;BME280;22716;51.556;5.080;2023-02-10T02:40:40;102879.72;;;2.74;100.00
36748;BME280;22716;51.556;5.080;2023-02-10T02:43:09;102865.66;;;2.69;100.00
36748;BME280;22716;51.556;5.080;2023-02-10T02:45:46;102876.91;;;2.69;100.00
36748;BME280;22716;51.556;5.080;2023-02-10T02:48:38;102859.59;;;2.68;100.00
36748;BME280;22716;51.556;5.080;2023-02-10T02:51:16;102869.72;;;2.64;100.00
36748;BME280;22716;51.556;5.080;2023-02-10T02:53:54;102859.19;;;2.61;100.00
36748;BME280;22716;51.556;5.080;2023-02-10T02:56:33;102860.06;;;2.61;100.00
36748;BME280;22716;51.556;5.080;2023-02-10T02:59:10;102855.56;;;2.57;100.00
36748;BME280;22716;51.556;5.080;2023-02-10T03:01:46;102867.59;;;2.57;100.00
36748;BME280;22716;51.556;5.080;2023-02-10T03:04:24;102862.97;;;2.51;100.00
36748;BME280;22716;51.556;5.080;2023-02-10T03:06:56;102881.09;;;2.51;100.00
36748;BME280;22716;51.556;5.080;2023-02-10T03:09:25;102869.84;;;2.51;100.00
36748;BME280;22716;51.556;5.080;2023-02-10T03:11:55;102883.69;;;2.51;100.00
36748;BME280;22716;51.556;5.080;2023-02-10T03:14:24;102881.81;;;2.49;100.00
36748;BME280;22716;51.556;5.080;2023-02-10T03:16:52;102887.78;;;2.48;100.00
36748;BME280;22716;51.556;5.080;2023-02-10T03:19:24;102864.91;;;2.39;100.00
36748;BME280;22716;51.556;5.080;2023-02-10T03:21:53;102877.22;;;2.43;100.00
36748;BME280;22716;51.556;5.080;2023-02-10T03:24:21;102879.63;;;2.40;100.00
36748;BME280;22716;51.556;5.080;2023-02-10T03:26:50;102870.88;;;2.38;100.00
36748;BME280;22716;51.556;5.080;2023-02-10T03:29:19;102882.28;;;2.42;100.00
36748;BME280;22716;51.556;5.080;2023-02-10T03:31:49;102882.28;;;2.42;100.00
36748;BME280;22716;51.556;5.080;2023-02-10T03:34:18;102884.06;;;2.43;100.00
36748;BME280;22716;51.556;5.080;2023-02-10T03:36:49;102889.16;;;2.41;100.00
36748;BME280;22716;51.556;5.080;2023-02-10T03:39:18;102895.03;;;2.39;100.00
36748;BME280;22716;51.556;5.080;2023-02-10T03:41:47;102895.78;;;2.36;100.00
36748;BME280;22716;51.556;5.080;2023-02-10T03:44:16;102876.81;;;2.21;100.00
36748;BME280;22716;51.556;5.080;2023-02-10T03:46:45;102882.44;;;2.29;100.00
36748;BME280;22716;51.556;5.080;2023-02-10T03:49:14;102900.59;;;2.30;100.00
36748;BME280;22716;51.556;5.080;2023-02-10T03:51:42;102890.97;;;2.28;100.00
36748;BME280;22716;51.556;5.080;2023-02-10T03:54:14;102887.59;;;2.29;100.00
36748;BME280;22716;51.556;5.080;2023-02-10T03:56:43;102900.38;;;2.25;100.00
36748;BME280;22716;51.556;5.080;2023-02-10T03:59:12;102894.75;;;2.18;100.00
36748;BME280;22716;51.556;5.080;2023-02-10T04:01:40;102899.03;;;2.17;100.00
36748;BME280;22716;51.556;5.080;2023-02-10T04:04:09;102899.03;;;2.17;100.00
36748;BME280;22716;51.556;5.080;2023-02-10T04:06:39;102899.19;;;2.20;100.00
36748;BME280;22716;51.556;5.080;2023-02-10T04:09:08;102899.19;;;2.20;100.00
36748;BME280;22716;51.556;5.080;2023-02-10T04:11:39;102889.50;;;2.16;100.00
36748;BME280;22716;51.556;5.080;2023-02-10T04:14:08;102897.44;;;2.19;100.00
36748;BME280;22716;51.556;5.080;2023-02-10T04:16:37;102901.00;;;2.21;100.00
36748;BME280;22716;51.556;5.080;2023-02-10T04:19:06;102904.38;;;2.20;100.00
36748;BME280;22716;51.556;5.080;2023-02-10T04:21:35;102898.06;;;2.15;100.00
36748;BME280;22716;51.556;5.080;2023-02-10T04:24:05;102905.75;;;2.14;100.00
36748;BME280;22716;51.556;5.080;2023-02-10T04:26:34;102896.19;;;2.13;100.00
36748;BME280;22716;51.556;5.080;2023-02-10T04:29:06;102889.16;;;2.10;100.00
36748;BME280;22716;51.556;5.080;2023-02-10T04:31:34;102898.53;;;2.08;100.00
36748;BME280;22716;51.556;5.080;2023-02-10T04:34:03;102897.38;;;2.03;100.00
36748;BME280;22716;51.556;5.080;2023-02-10T04:36:32;102896.94;;;1.96;100.00
36748;BME280;22716;51.556;5.080;2023-02-10T04:39:02;102898.81;;;1.98;100.00
36748;BME280;22716;51.556;5.080;2023-02-10T04:41:31;102903.81;;;1.95;100.00
36748;BME280;22716;51.556;5.080;2023-02-10T04:43:59;102902.84;;;1.93;100.00
36748;BME280;22716;51.556;5.080;2023-02-10T04:46:31;102905.06;;;1.87;100.00
36748;BME280;22716;51.556;5.080;2023-02-10T04:49:00;102881.66;;;1.69;100.00
36748;BME280;22716;51.556;5.080;2023-02-10T04:51:29;102913.19;;;1.79;100.00
36748;BME280;22716;51.556;5.080;2023-02-10T04:53:57;102914.78;;;1.77;100.00
36748;BME280;22716;51.556;5.080;2023-02-10T04:56:26;102917.00;;;1.70;100.00
36748;BME280;22716;51.556;5.080;2023-02-10T04:58:55;102911.47;;;1.64;100.00
36748;BME280;22716;51.556;5.080;2023-02-10T05:01:23;102908.63;;;1.60;100.00
36748;BME280;22716;51.556;5.080;2023-02-10T05:03:55;102914.53;;;1.57;100.00
36748;BME280;22716;51.556;5.080;2023-02-10T05:06:24;102907.31;;;1.52;100.00
36748;BME280;22716;51.556;5.080;2023-02-10T05:08:53;102899.28;;;1.47;100.00
36748;BME280;22716;51.556;5.080;2023-02-10T05:11:21;102907.84;;;1.46;100.00
36748;BME280;22716;51.556;5.080;2023-02-10T05:13:50;102914.34;;;1.40;100.00
36748;BME280;22716;51.556;5.080;2023-02-10T05:16:19;102907.13;;;1.34;100.00
36748;BME280;22716;51.556;5.080;2023-02-10T05:18:49;102899.19;;;1.31;100.00
36748;BME280;22716;51.556;5.080;2023-02-10T05:21:21;102912.47;;;1.37;100.00
36748;BME280;22716;51.556;5.080;2023-02-10T05:23:49;102899.91;;;1.29;100.00
36748;BME280;22716;51.556;5.080;2023-02-10T05:26:18;102904.53;;;1.34;100.00
36748;BME280;22716;51.556;5.080;2023-02-10T05:28:47;102907.53;;;1.27;100.00
36748;BME280;22716;51.556;5.080;2023-02-10T05:31:15;102901.59;;;1.28;100.00
36748;BME280;22716;51.556;5.080;2023-02-10T05:33:44;102901.22;;;1.22;100.00
36748;BME280;22716;51.556;5.080;2023-02-10T05:36:13;102910.94;;;1.26;100.00
36748;BME280;22716;51.556;5.080;2023-02-10T05:38:44;102915.22;;;1.26;100.00
36748;BME280;22716;51.556;5.080;2023-02-10T05:41:32;102915.22;;;1.26;100.00
36748;BME280;22716;51.556;5.080;2023-02-10T05:44:01;102922.06;;;1.25;100.00
36748;BME280;22716;51.556;5.080;2023-02-10T05:46:30;102911.44;;;1.21;100.00
36748;BME280;22716;51.556;5.080;2023-02-10T05:48:59;102918.31;;;1.20;100.00
36748;BME280;22716;51.556;5.080;2023-02-10T05:51:28;102916.59;;;1.21;100.00
36748;BME280;22716;51.556;5.080;2023-02-10T05:54:00;102924.44;;;1.22;100.00
36748;BME280;22716;51.556;5.080;2023-02-10T05:56:28;102924.34;;;1.21;100.00
36748;BME280;22716;51.556;5.080;2023-02-10T05:58:57;102920.06;;;1.21;100.00
36748;BME280;22716;51.556;5.080;2023-02-10T06:01:27;102927.03;;;1.22;100.00
36748;BME280;22716;51.556;5.080;2023-02-10T06:03:56;102923.38;;;1.19;100.00
36748;BME280;22716;51.556;5.080;2023-02-10T06:06:25;102924.88;;;1.15;100.00
36748;BME280;22716;51.556;5.080;2023-02-10T06:08:53;102930.22;;;1.18;100.00
36748;BME280;22716;51.556;5.080;2023-02-10T06:11:25;102932.53;;;1.13;100.00
36748;BME280;22716;51.556;5.080;2023-02-10T06:13:54;102936.28;;;1.19;100.00
36748;BME280;22716;51.556;5.080;2023-02-10T06:16:23;102937.19;;;1.19;100.00
36748;BME280;22716;51.556;5.080;2023-02-10T06:18:51;102923.28;;;1.17;100.00
36748;BME280;22716;51.556;5.080;2023-02-10T06:21:21;102891.56;;;1.05;100.00
36748;BME280;22716;51.556;5.080;2023-02-10T06:23:50;102912.78;;;1.14;100.00
36748;BME280;22716;51.556;5.080;2023-02-10T06:26:19;102926.13;;;1.22;100.00
36748;BME280;22716;51.556;5.080;2023-02-10T06:28:50;102930.41;;;1.21;100.00
36748;BME280;22716;51.556;5.080;2023-02-10T06:31:19;102924.34;;;1.21;100.00
36748;BME280;22716;51.556;5.080;2023-02-10T06:33:48;102911.88;;;1.13;100.00
36748;BME280;22716;51.556;5.080;2023-02-10T06:36:17;102913.53;;;1.26;100.00
36748;BME280;22716;51.556;5.080;2023-02-10T06:38:46;102897.47;;;1.17;100.00
36748;BME280;22716;51.556;5.080;2023-02-10T06:41:16;102922.25;;;1.28;100.00
36748;BME280;22716;51.556;5.080;2023-02-10T06:43:45;102922.44;;;1.31;100.00
36748;BME280;22716;51.556;5.080;2023-02-10T06:46:16;102924.38;;;1.35;100.00
36748;BME280;22716;51.556;5.080;2023-02-10T06:48:45;102920.09;;;1.36;100.00
36748;BME280;22716;51.556;5.080;2023-02-10T06:51:14;102917.53;;;1.36;100.00
36748;BME280;22716;51.556;5.080;2023-02-10T06:53:43;102922.97;;;1.40;100.00
36748;BME280;22716;51.556;5.080;2023-02-10T06:56:12;102929.22;;;1.44;100.00
36748;BME280;22716;51.556;5.080;2023-02-10T06:58:41;102940.59;;;1.47;100.00
36748;BME280;22716;51.556;5.080;2023-02-10T07:01:11;102950.22;;;1.50;100.00
36748;BME280;22716;51.556;5.080;2023-02-10T07:03:43;102952.13;;;1.52;100.00
36748;BME280;22716;51.556;5.080;2023-02-10T07:06:12;102949.72;;;1.55;100.00
36748;BME280;22716;51.556;5.080;2023-02-10T07:08:44;102949.91;;;1.58;100.00
36748;BME280;22716;51.556;5.080;2023-02-10T07:11:16;102945.53;;;1.57;100.00
36748;BME280;22716;51.556;5.080;2023-02-10T07:13:44;102961.28;;;1.62;100.00
36748;BME280;22716;51.556;5.080;2023-02-10T07:16:13;102961.22;;;1.60;100.00
36748;BME280;22716;51.556;5.080;2023-02-10T07:18:44;102957.00;;;1.62;100.00
36748;BME280;22716;51.556;5.080;2023-02-10T07:21:14;102964.34;;;1.69;100.00
36748;BME280;22716;51.556;5.080;2023-02-10T07:23:43;102939.91;;;1.64;100.00
36748;BME280;22716;51.556;5.080;2023-02-10T07:26:11;102953.53;;;1.77;100.00
36748;BME280;22716;51.556;5.080;2023-02-10T07:28:43;102958.88;;;1.80;100.00
36748;BME280;22716;51.556;5.080;2023-02-10T07:31:12;102959.59;;;1.77;100.00
36748;BME280;22716;51.556;5.080;2023-02-10T07:33:43;102975.94;;;1.91;100.00
36748;BME280;22716;51.556;5.080;2023-02-10T07:36:12;102981.13;;;1.91;100.00
36748;BME280;22716;51.556;5.080;2023-02-10T07:38:41;102964.94;;;1.95;100.00
36748;BME280;22716;51.556;5.080;2023-02-10T07:41:10;102954.53;;;1.93;100.00
36748;BME280;22716;51.556;5.080;2023-02-10T07:43:38;102959.16;;;1.99;100.00
36748;BME280;22716;51.556;5.080;2023-02-10T07:46:07;102953.53;;;2.06;100.00
36748;BME280;22716;51.556;5.080;2023-02-10T07:48:36;102948.53;;;2.09;100.00
36748;BME280;22716;51.556;5.080;2023-02-10T07:51:08;102939.75;;;2.05;100.00
36748;BME280;22716;51.556;5.080;2023-02-10T07:53:36;102949.19;;;2.05;100.00
36748;BME280;22716;51.556;5.080;2023-02-10T07:56:06;102963.59;;;2.16;100.00
36748;BME280;22716;51.556;5.080;2023-02-10T07:58:36;102954.59;;;2.09;100.00
36748;BME280;22716;51.556;5.080;2023-02-10T08:01:09;102973.34;;;2.20;100.00
36748;BME280;22716;51.556;5.080;2023-02-10T08:03:38;102983.56;;;2.18;100.00
36748;BME280;22716;51.556;5.080;2023-02-10T08:06:09;102986.44;;;2.23;100.00
36748;BME280;22716;51.556;5.080;2023-02-10T08:08:38;102984.19;;;2.29;100.00
36748;BME280;22716;51.556;5.080;2023-02-10T08:11:07;102988.56;;;2.30;100.00
36748;BME280;22716;51.556;5.080;2023-02-10T08:13:35;102987.66;;;2.30;100.00
36748;BME280;22716;51.556;5.080;2023-02-10T08:16:05;102990.34;;;2.31;100.00
36748;BME280;22716;51.556;5.080;2023-02-10T08:18:37;102979.09;;;2.31;100.00
36748;BME280;22716;51.556;5.080;2023-02-10T08:21:09;102984.63;;;2.37;100.00
36748;BME280;22716;51.556;5.080;2023-02-10T08:23:38;102965.09;;;2.27;100.00
36748;BME280;22716;51.556;5.080;2023-02-10T08:26:08;102985.78;;;2.42;100.00
36748;BME280;22716;51.556;5.080;2023-02-10T08:28:39;102989.25;;;2.42;100.00
36748;BME280;22716;51.556;5.080;2023-02-10T08:31:09;103000.75;;;2.47;100.00
36748;BME280;22716;51.556;5.080;2023-02-10T08:33:39;102996.63;;;2.51;100.00
36748;BME280;22716;51.556;5.080;2023-02-10T08:36:12;103001.09;;;2.53;100.00
36748;BME280;22716;51.556;5.080;2023-02-10T08:38:42;102981.91;;;2.50;100.00
36748;BME280;22716;51.556;5.080;2023-02-10T08:41:11;102965.69;;;2.52;100.00
36748;BME280;22716;51.556;5.080;2023-02-10T08:43:40;102973.13;;;2.62;100.00
36748;BME280;22716;51.556;5.080;2023-02-10T08:46:09;102964.41;;;2.60;100.00
36748;BME280;22716;51.556;5.080;2023-02-10T08:48:37;102976.78;;;2.66;100.00
36748;BME280;22716;51.556;5.080;2023-02-10T08:51:11;102977.69;;;2.66;100.00
36748;BME280;22716;51.556;5.080;2023-02-10T08:53:40;102983.94;;;2.70;100.00
36748;BME280;22716;51.556;5.080;2023-02-10T08:56:13;102977.88;;;2.69;100.00
36748;BME280;22716;51.556;5.080;2023-02-10T08:58:42;102980.63;;;2.72;100.00
36748;BME280;22716;51.556;5.080;2023-02-10T09:01:13;102990.41;;;2.78;100.00
36748;BME280;22716;51.556;5.080;2023-02-10T09:03:43;102991.38;;;2.80;100.00
36748;BME280;22716;51.556;5.080;2023-02-10T09:06:16;102997.63;;;2.83;100.00
36748;BME280;22716;51.556;5.080;2023-02-10T09:08:46;102986.66;;;2.88;100.00
36748;BME280;22716;51.556;5.080;2023-02-10T09:11:15;102982.81;;;2.81;100.00
36748;BME280;22716;51.556;5.080;2023-02-10T09:13:44;102985.91;;;2.90;100.00
36748;BME280;22716;51.556;5.080;2023-02-10T09:16:13;102983.31;;;2.90;100.00
36748;BME280;22716;51.556;5.080;2023-02-10T09:18:42;102995.72;;;2.96;100.00
36748;BME280;22716;51.556;5.080;2023-02-10T09:21:14;102982.59;;;2.93;100.00
36748;BME280;22716;51.556;5.080;2023-02-10T09:23:42;102985.59;;;3.00;100.00
36748;BME280;22716;51.556;5.080;2023-02-10T09:26:11;102984.16;;;3.05;100.00
36748;BME280;22716;51.556;5.080;2023-02-10T09:28:40;103005.28;;;3.13;100.00
36748;BME280;22716;51.556;5.080;2023-02-10T09:31:11;102998.47;;;3.15;100.00
36748;BME280;22716;51.556;5.080;2023-02-10T09:33:41;103010.94;;;3.22;100.00
36748;BME280;22716;51.556;5.080;2023-02-10T09:36:16;102995.09;;;3.16;100.00
36748;BME280;22716;51.556;5.080;2023-02-10T09:38:45;103000.97;;;3.29;100.00
36748;BME280;22716;51.556;5.080;2023-02-10T09:41:21;102993.38;;;3.32;100.00
36748;BME280;22716;51.556;5.080;2023-02-10T09:44:08;102994.59;;;3.39;100.00
36748;BME280;22716;51.556;5.080;2023-02-10T09:46:47;103002.13;;;3.51;100.00
36748;BME280;22716;51.556;5.080;2023-02-10T09:49:42;102993.75;;;3.56;100.00
36748;BME280;22716;51.556;5.080;2023-02-10T09:52:25;102987.09;;;3.61;100.00
36748;BME280;22716;51.556;5.080;2023-02-10T09:54:58;102992.34;;;3.79;100.00
36748;BME280;22716;51.556;5.080;2023-02-10T09:57:36;103004.97;;;3.89;100.00
36748;BME280;22716;51.556;5.080;2023-02-10T10:00:17;103012.03;;;3.91;100.00
36748;BME280;22716;51.556;5.080;2023-02-10T10:02:51;103009.94;;;3.84;100.00
36748;BME280;22716;51.556;5.080;2023-02-10T10:05:28;103018.59;;;3.85;100.00
36748;BME280;22716;51.556;5.080;2023-02-10T10:08:14;103015.13;;;3.84;100.00
36748;BME280;22716;51.556;5.080;2023-02-10T10:10:45;103013.66;;;3.89;100.00
36748;BME280;22716;51.556;5.080;2023-02-10T10:13:20;103018.16;;;3.93;100.00
36748;BME280;22716;51.556;5.080;2023-02-10T10:16:06;103028.28;;;4.05;100.00
36748;BME280;22716;51.556;5.080;2023-02-10T10:18:42;103022.84;;;4.17;100.00
36748;BME280;22716;51.556;5.080;2023-02-10T10:21:21;103015.63;;;4.29;100.00
36748;BME280;22716;51.556;5.080;2023-02-10T10:24:04;103006.16;;;4.29;100.00
36748;BME280;22716;51.556;5.080;2023-02-10T10:26:45;102999.66;;;4.20;100.00
36748;BME280;22716;51.556;5.080;2023-02-10T10:29:22;103002.50;;;4.26;100.00
36748;BME280;22716;51.556;5.080;2023-02-10T10:31:57;102993.56;;;4.19;100.00
36748;BME280;22716;51.556;5.080;2023-02-10T10:34:35;103004.44;;;4.30;100.00
36748;BME280;22716;51.556;5.080;2023-02-10T10:37:14;103025.22;;;4.30;100.00
36748;BME280;22716;51.556;5.080;2023-02-10T10:39:48;103020.13;;;4.31;100.00
36748;BME280;22716;51.556;5.080;2023-02-10T10:42:22;103012.38;;;4.33;100.00
36748;BME280;22716;51.556;5.080;2023-02-10T10:44:57;103005.72;;;4.38;100.00
36748;BME280;22716;51.556;5.080;2023-02-10T10:47:29;103008.44;;;4.41;100.00
36748;BME280;22716;51.556;5.080;2023-02-10T10:50:01;103011.19;;;4.44;100.00
36748;BME280;22716;51.556;5.080;2023-02-10T10:52:32;103002.22;;;4.55;100.00
36748;BME280;22716;51.556;5.080;2023-02-10T10:55:10;102991.84;;;4.55;100.00
36748;BME280;22716;51.556;5.080;2023-02-10T10:57:42;102990.56;;;4.65;100.00
36748;BME280;22716;51.556;5.080;2023-02-10T11:00:19;102986.41;;;4.68;100.00
36748;BME280;22716;51.556;5.080;2023-02-10T11:02:54;102977.00;;;4.70;100.00
36748;BME280;22716;51.556;5.080;2023-02-10T11:05:28;102983.97;;;4.71;100.00
36748;BME280;22716;51.556;5.080;2023-02-10T11:07:58;102977.22;;;4.75;100.00
36748;BME280;22716;51.556;5.080;2023-02-10T11:10:35;102977.66;;;4.84;100.00
36748;BME280;22716;51.556;5.080;2023-02-10T11:13:16;102983.19;;;4.91;100.00
36748;BME280;22716;51.556;5.080;2023-02-10T11:15:46;102962.56;;;4.94;100.00
36748;BME280;22716;51.556;5.080;2023-02-10T11:18:18;102989.84;;;5.04;100.00
36748;BME280;22716;51.556;5.080;2023-02-10T11:20:55;102981.44;;;5.09;100.00
36748;BME280;22716;51.556;5.080;2023-02-10T11:23:25;102982.47;;;5.13;100.00
36748;BME280;22716;51.556;5.080;2023-02-10T11:26:00;102974.81;;;5.16;100.00
36748;BME280;22716;51.556;5.080;2023-02-10T11:28:33;102982.06;;;5.23;100.00
36748;BME280;22716;51.556;5.080;2023-02-10T11:31:05;102969.94;;;5.24;100.00
36748;BME280;22716;51.556;5.080;2023-02-10T11:33:41;102974.91;;;5.37;100.00
36748;BME280;22716;51.556;5.080;2023-02-10T11:36:10;102983.16;;;5.47;100.00
36748;BME280;22716;51.556;5.080;2023-02-10T11:38:40;102956.41;;;5.50;100.00
36748;BME280;22716;51.556;5.080;2023-02-10T11:41:12;102970.97;;;5.65;100.00
36748;BME280;22716;51.556;5.080;2023-02-10T11:43:45;102969.38;;;5.69;100.00
36748;BME280;22716;51.556;5.080;2023-02-10T11:46:19;102964.81;;;5.84;100.00
36748;BME280;22716;51.556;5.080;2023-02-10T11:48:52;102959.16;;;5.93;100.00
36748;BME280;22716;51.556;5.080;2023-02-10T11:51:22;102960.25;;;5.98;100.00
36748;BME280;22716;51.556;5.080;2023-02-10T11:53:51;102954.41;;;6.03;100.00
36748;BME280;22716;51.556;5.080;2023-02-10T11:56:26;102957.00;;;6.03;100.00
36748;BME280;22716;51.556;5.080;2023-02-10T11:59:23;102956.22;;;6.06;100.00
36748;BME280;22716;51.556;5.080;2023-02-10T12:01:58;102951.91;;;6.06;100.00
36748;BME280;22716;51.556;5.080;2023-02-10T12:04:57;102953.84;;;6.10;100.00
36748;BME280;22716;51.556;5.080;2023-02-10T12:07:39;102941.28;;;6.22;100.00
36748;BME280;22716;51.556;5.080;2023-02-10T12:10:16;102938.38;;;6.36;100.00
36748;BME280;22716;51.556;5.080;2023-02-10T12:12:56;102943.22;;;6.49;100.00
36748;BME280;22716;51.556;5.080;2023-02-10T12:15:37;102934.81;;;6.56;100.00
36748;BME280;22716;51.556;5.080;2023-02-10T12:18:22;102931.44;;;6.58;100.00
36748;BME280;22716;51.556;5.080;2023-02-10T12:21:04;102943.06;;;6.89;100.00
36748;BME280;22716;51.556;5.080;2023-02-10T12:23:56;102957.31;;;6.98;100.00
36748;BME280;22716;51.556;5.080;2023-02-10T12:26:33;102953.63;;;6.93;100.00
36748;BME280;22716;51.556;5.080;2023-02-10T12:29:16;102954.53;;;6.94;100.00
36748;BME280;22716;51.556;5.080;2023-02-10T12:31:53;102939.66;;;6.91;100.00
36748;BME280;22716;51.556;5.080;2023-02-10T12:34:45;102933.75;;;6.95;100.00
36748;BME280;22716;51.556;5.080;2023-02-10T12:37:27;102939.31;;;7.04;100.00
36748;BME280;22716;51.556;5.080;2023-02-10T12:40:14;102931.91;;;7.16;100.00
36748;BME280;22716;51.556;5.080;2023-02-10T12:42:54;102925.50;;;7.30;100.00
36748;BME280;22716;51.556;5.080;2023-02-10T12:45:33;102918.16;;;7.44;100.00
36748;BME280;22716;51.556;5.080;2023-02-10T12:48:14;102911.53;;;7.54;100.00
36748;BME280;22716;51.556;5.080;2023-02-10T12:51:04;102912.63;;;7.60;100.00
36748;BME280;22716;51.556;5.080;2023-02-10T12:53:40;102910.78;;;7.58;100.00
36748;BME280;22716;51.556;5.080;2023-02-10T12:56:14;102908.41;;;7.64;100.00
36748;BME280;22716;51.556;5.080;2023-02-10T12:58:46;102893.72;;;7.66;100.00
36748;BME280;22716;51.556;5.080;2023-02-10T13:01:24;102884.03;;;7.63;100.00
36748;BME280;22716;51.556;5.080;2023-02-10T13:03:58;102899.97;;;7.71;100.00
36748;BME280;22716;51.556;5.080;2023-02-10T13:06:35;102897.66;;;7.80;100.00
36748;BME280;22716;51.556;5.080;2023-02-10T13:09:12;102900.47;;;7.86;100.00
36748;BME280;22716;51.556;5.080;2023-02-10T13:11:48;102897.09;;;7.90;100.00
36748;BME280;22716;51.556;5.080;2023-02-10T13:14:23;102894.38;;;7.85;100.00
36748;BME280;22716;51.556;5.080;2023-02-10T13:16:58;102898.69;;;7.85;100.00
36748;BME280;22716;51.556;5.080;2023-02-10T13:19:36;102878.06;;;7.66;100.00